createdAt,value
2022-08-14T00:00:37.388Z,51.48
2022-08-14T00:03:29.532Z,51.56
2022-08-14T00:06:25.886Z,51.40
2022-08-14T00:09:16.099Z,51.56
2022-08-14T00:12:05.598Z,51.49
2022-08-14T00:15:21.852Z,51.67
2022-08-14T00:18:09.964Z,51.63
2022-08-14T00:21:01.009Z,51.50
2022-08-14T00:23:53.832Z,51.57
2022-08-14T00:26:41.299Z,51.36
2022-08-14T00:29:33.025Z,51.48
2022-08-14T00:32:52.498Z,51.53
2022-08-14T00:36:35.189Z,51.39
2022-08-14T00:38:40.668Z,51.32
2022-08-14T00:41:33.455Z,51.40
2022-08-14T00:44:21.325Z,51.21
2022-08-14T00:47:25.623Z,51.37
2022-08-14T00:50:18.221Z,51.35
2022-08-14T00:53:05.269Z,51.29
2022-08-14T00:55:57.712Z,51.52
2022-08-14T00:58:45.500Z,51.37
2022-08-14T01:01:39.956Z,51.51
2022-08-14T01:04:38.081Z,51.55
2022-08-14T01:07:47.243Z,51.62
2022-08-14T01:10:52.038Z,51.68
2022-08-14T01:13:42.646Z,51.68
2022-08-14T01:16:31.503Z,52.01
2022-08-14T01:19:37.323Z,52.02
2022-08-14T01:22:26.614Z,51.93
2022-08-14T01:25:12.851Z,51.86
2022-08-14T01:27:58.814Z,51.94
2022-08-14T01:30:45.366Z,51.99
2022-08-14T01:34:00.166Z,51.89
2022-08-14T01:36:38.928Z,51.89
2022-08-14T01:39:25.757Z,51.85
2022-08-14T01:42:11.931Z,51.72
2022-08-14T01:45:25.506Z,51.70
2022-08-14T01:48:16.180Z,51.65
2022-08-14T01:51:18.791Z,51.65
2022-08-14T01:54:14.558Z,51.84
2022-08-14T01:57:00.772Z,51.77
2022-08-14T01:59:48.254Z,51.69
2022-08-14T02:02:36.946Z,51.92
2022-08-14T02:05:29.436Z,51.79
2022-08-14T02:08:22.475Z,51.76
2022-08-14T02:11:23.965Z,51.92
2022-08-14T02:14:14.259Z,51.85
2022-08-14T02:17:01.325Z,51.97
2022-08-14T02:19:48.144Z,51.92
2022-08-14T02:22:34.708Z,51.91
2022-08-14T02:25:31.175Z,51.86
2022-08-14T02:28:25.798Z,52.00
2022-08-14T02:31:24.474Z,51.88
2022-08-14T02:34:32.135Z,51.93
2022-08-14T02:37:22.346Z,51.89
2022-08-14T02:40:09.383Z,51.86
2022-08-14T02:42:57.504Z,51.79
2022-08-14T02:45:45.359Z,51.97
2022-08-14T02:49:04.728Z,52.04
2022-08-14T02:51:50.723Z,52.02
2022-08-14T02:54:40.723Z,52.00
2022-08-14T02:57:40.489Z,52.09
2022-08-14T03:00:27.310Z,52.02
2022-08-14T03:03:13.222Z,52.05
2022-08-14T03:06:00.374Z,52.13
2022-08-14T03:08:47.371Z,52.12
2022-08-14T03:11:34.679Z,52.40
2022-08-14T03:14:23.306Z,52.23
2022-08-14T03:17:10.409Z,52.01
2022-08-14T03:19:56.398Z,51.98
2022-08-14T03:22:45.003Z,51.86
2022-08-14T03:25:38.105Z,52.07
2022-08-14T03:28:33.535Z,51.91
2022-08-14T03:31:26.038Z,52.08
2022-08-14T03:34:24.613Z,51.89
2022-08-14T03:39:09.886Z,52.08
2022-08-14T03:40:40.713Z,52.08
2022-08-14T03:43:28.327Z,52.05
2022-08-14T03:46:38.817Z,52.02
2022-08-14T03:49:29.299Z,52.00
2022-08-14T03:52:27.960Z,52.17
2022-08-14T03:55:22.143Z,52.10
2022-08-14T03:58:09.470Z,52.17
2022-08-14T04:01:01.637Z,52.68
2022-08-14T04:03:48.664Z,52.50
2022-08-14T04:06:47.617Z,52.46
2022-08-14T04:09:34.252Z,52.55
2022-08-14T04:12:26.581Z,52.71
2022-08-14T04:15:15.168Z,52.59
2022-08-14T04:18:09.285Z,52.41
2022-08-14T04:21:01.292Z,52.47
2022-08-14T04:23:57.085Z,52.75
2022-08-14T04:26:45.002Z,52.55
2022-08-14T04:29:33.371Z,52.64
2022-08-14T04:33:01.074Z,52.64
2022-08-14T04:35:55.312Z,52.66
2022-08-14T04:39:00.296Z,52.50
2022-08-14T04:42:11.824Z,52.69
2022-08-14T04:45:00.648Z,52.61
2022-08-14T04:48:05.566Z,52.79
2022-08-14T04:50:54.184Z,52.91
2022-08-14T04:53:43.716Z,52.96
2022-08-14T04:56:31.228Z,52.74
2022-08-14T04:59:19.796Z,52.94
2022-08-14T05:02:08.273Z,52.95
2022-08-14T05:04:56.919Z,53.04
2022-08-14T05:07:54.129Z,52.85
2022-08-14T05:10:56.800Z,53.08
2022-08-14T05:16:54.021Z,52.87
2022-08-14T05:19:44.655Z,52.88
2022-08-14T05:22:55.608Z,52.85
2022-08-14T05:25:43.107Z,52.71
2022-08-14T05:28:34.188Z,52.84
2022-08-14T05:31:20.355Z,52.94
2022-08-14T05:34:09.472Z,53.01
2022-08-14T05:37:01.821Z,52.66
2022-08-14T05:39:49.115Z,53.37
2022-08-14T05:42:35.262Z,52.73
2022-08-14T05:45:21.242Z,52.72
2022-08-14T05:48:09.522Z,52.69
2022-08-14T05:50:55.991Z,52.83
2022-08-14T05:53:42.268Z,52.85
2022-08-14T05:56:29.067Z,52.97
2022-08-14T05:59:20.784Z,52.84
2022-08-14T06:02:26.917Z,52.92
2022-08-14T06:05:15.272Z,52.80
2022-08-14T06:08:01.903Z,52.91
2022-08-14T06:11:03.103Z,52.82
2022-08-14T06:13:49.387Z,53.20
2022-08-14T06:16:38.078Z,53.12
2022-08-14T06:19:26.517Z,53.09
2022-08-14T06:22:13.095Z,53.00
2022-08-14T06:24:58.840Z,53.00
2022-08-14T06:27:47.740Z,53.06
2022-08-14T06:30:46.271Z,52.96
2022-08-14T06:35:04.236Z,53.47
2022-08-14T06:36:45.554Z,53.05
2022-08-14T06:39:37.425Z,53.00
2022-08-14T06:42:32.196Z,52.96
2022-08-14T06:45:19.334Z,52.95
2022-08-14T06:48:06.218Z,52.86
2022-08-14T06:50:58.544Z,52.92
2022-08-14T06:53:44.378Z,52.95
2022-08-14T06:56:32.058Z,52.90
2022-08-14T06:59:20.034Z,52.96
2022-08-14T07:02:24.836Z,52.90
2022-08-14T07:05:33.232Z,53.04
2022-08-14T07:08:31.212Z,53.07
2022-08-14T07:11:18.117Z,52.87
2022-08-14T07:14:05.699Z,52.89
2022-08-14T07:16:55.387Z,52.99
2022-08-14T07:19:41.628Z,52.81
2022-08-14T07:22:32.602Z,52.82
2022-08-14T07:25:19.673Z,52.65
2022-08-14T07:28:20.218Z,52.76
2022-08-14T07:31:09.913Z,52.49
2022-08-14T07:33:55.776Z,52.53
2022-08-14T07:36:53.732Z,52.33
2022-08-14T07:39:51.503Z,52.03
2022-08-14T07:42:44.079Z,52.13
2022-08-14T07:45:32.345Z,52.03
2022-08-14T07:48:25.115Z,51.88
2022-08-14T07:51:16.834Z,51.93
2022-08-14T07:54:09.788Z,51.99
2022-08-14T07:57:00.056Z,51.93
2022-08-14T07:59:49.449Z,51.87
2022-08-14T08:02:36.007Z,52.01
2022-08-14T08:05:26.863Z,51.96
2022-08-14T08:08:26.811Z,51.86
2022-08-14T08:11:14.828Z,51.62
2022-08-14T08:14:06.285Z,51.76
2022-08-14T08:16:57.536Z,51.74
2022-08-14T08:19:47.492Z,51.77
2022-08-14T08:22:37.985Z,51.74
2022-08-14T08:25:24.938Z,51.61
2022-08-14T08:28:19.844Z,51.54
2022-08-14T08:31:17.417Z,51.66
2022-08-14T08:34:06.683Z,51.65
2022-08-14T08:37:06.602Z,51.64
2022-08-14T08:40:02.614Z,51.68
2022-08-14T08:42:53.248Z,51.62
2022-08-14T08:45:40.246Z,51.73
2022-08-14T08:48:52.263Z,51.78
2022-08-14T08:51:43.018Z,51.60
2022-08-14T08:54:31.522Z,51.49
2022-08-14T08:57:21.402Z,51.53
2022-08-14T09:00:24.992Z,51.75
2022-08-14T09:03:17.906Z,51.63
2022-08-14T09:06:54.456Z,51.56
2022-08-14T09:09:25.973Z,51.38
2022-08-14T09:12:19.328Z,51.39
2022-08-14T09:15:12.096Z,51.20
2022-08-14T09:17:58.671Z,51.10
2022-08-14T09:20:47.092Z,51.03
2022-08-14T09:23:35.103Z,51.02
2022-08-14T09:26:49.259Z,50.99
2022-08-14T09:29:35.655Z,51.05
2022-08-14T09:32:59.001Z,51.08
2022-08-14T09:36:04.129Z,51.19
2022-08-14T09:38:50.482Z,51.16
2022-08-14T09:42:21.853Z,51.17
2022-08-14T09:45:20.585Z,50.98
2022-08-14T09:48:18.807Z,50.94
2022-08-14T09:54:19.693Z,50.78
2022-08-14T09:57:12.092Z,50.83
2022-08-14T09:59:58.100Z,50.58
2022-08-14T10:03:05.503Z,50.54
2022-08-14T10:06:10.479Z,50.52
2022-08-14T10:09:16.903Z,50.46
2022-08-14T10:12:13.317Z,50.33
2022-08-14T10:15:16.847Z,50.04
2022-08-14T10:18:17.599Z,49.91
2022-08-14T10:21:09.669Z,49.70
2022-08-14T10:23:55.552Z,49.48
2022-08-14T10:26:43.551Z,49.44
2022-08-14T10:29:35.037Z,49.17
2022-08-14T10:32:28.702Z,48.93
2022-08-14T10:35:30.956Z,48.70
2022-08-14T10:38:36.999Z,48.47
2022-08-14T10:41:46.789Z,48.44
2022-08-14T10:44:38.905Z,48.54
2022-08-14T10:48:07.682Z,48.27
2022-08-14T10:50:51.601Z,48.17
2022-08-14T10:53:39.833Z,48.09
2022-08-14T10:56:35.221Z,47.84
2022-08-14T10:59:30.780Z,47.89
2022-08-14T11:02:45.346Z,47.87
2022-08-14T11:05:56.077Z,47.41
2022-08-14T11:08:45.663Z,47.41
2022-08-14T11:11:35.801Z,47.21
2022-08-14T11:14:23.129Z,47.21
2022-08-14T11:17:13.754Z,47.20
2022-08-14T11:20:14.108Z,46.94
2022-08-14T11:23:04.780Z,46.74
2022-08-14T11:25:57.178Z,46.67
2022-08-14T11:29:17.978Z,45.45
2022-08-14T11:32:04.334Z,46.33
2022-08-14T11:34:53.527Z,46.08
2022-08-14T11:37:51.352Z,46.02
2022-08-14T11:40:43.790Z,45.73
2022-08-14T11:43:44.027Z,45.45
2022-08-14T11:46:43.699Z,45.56
2022-08-14T11:49:34.901Z,45.51
2022-08-14T11:52:21.538Z,45.51
2022-08-14T11:55:15.619Z,45.24
2022-08-14T11:58:10.981Z,45.20
2022-08-14T12:01:02.780Z,45.36
2022-08-14T12:03:52.022Z,45.43
2022-08-14T12:06:52.604Z,45.08
2022-08-14T12:09:42.977Z,45.14
2022-08-14T12:12:35.949Z,45.16
2022-08-14T12:15:33.698Z,45.35
2022-08-14T12:18:38.728Z,44.81
2022-08-14T12:21:26.051Z,45.36
2022-08-14T12:24:35.624Z,45.39
2022-08-14T12:27:25.328Z,45.44
2022-08-14T12:30:26.852Z,45.47
2022-08-14T12:33:33.048Z,45.29
2022-08-14T12:36:23.673Z,45.18
2022-08-14T12:39:21.044Z,44.83
2022-08-14T12:42:07.522Z,44.87
2022-08-14T12:44:58.799Z,44.54
2022-08-14T12:47:51.482Z,44.67
2022-08-14T12:50:42.066Z,44.89
2022-08-14T12:53:38.632Z,44.56
2022-08-14T12:56:33.381Z,45.00
2022-08-14T12:59:31.249Z,45.28
2022-08-14T13:02:27.324Z,45.41
2022-08-14T13:05:14.614Z,45.70
2022-08-14T13:08:03.739Z,45.65
2022-08-14T13:10:52.188Z,45.68
2022-08-14T13:13:44.638Z,45.77
2022-08-14T13:16:33.658Z,45.90
2022-08-14T13:19:28.268Z,45.83
2022-08-14T13:22:28.770Z,45.89
2022-08-14T13:25:18.565Z,45.99
2022-08-14T13:28:05.596Z,46.09
2022-08-14T13:30:58.971Z,46.19
2022-08-14T13:33:46.076Z,46.26
2022-08-14T13:36:51.773Z,46.33
2022-08-14T13:39:39.335Z,46.36
2022-08-14T13:42:31.627Z,46.35
2022-08-14T13:45:22.249Z,46.44
2022-08-14T13:48:08.912Z,46.43
2022-08-14T13:51:10.813Z,46.43
2022-08-14T13:54:10.101Z,46.28
2022-08-14T13:57:01.234Z,46.25
2022-08-14T13:59:49.422Z,46.30
2022-08-14T14:02:39.667Z,46.33
2022-08-14T14:05:53.798Z,46.28
2022-08-14T14:08:47.978Z,46.11
2022-08-14T14:11:34.701Z,46.32
2022-08-14T14:14:45.113Z,46.13
2022-08-14T14:17:29.113Z,45.95
2022-08-14T14:20:35.471Z,45.99
2022-08-14T14:23:25.664Z,45.87
2022-08-14T14:26:23.073Z,45.70
2022-08-14T14:29:14.090Z,45.74
2022-08-14T14:32:01.614Z,45.65
2022-08-14T14:34:48.126Z,45.62
2022-08-14T14:37:35.552Z,45.54
2022-08-14T14:40:54.149Z,45.22
2022-08-14T14:43:28.854Z,44.30
2022-08-14T14:46:17.774Z,43.63
2022-08-14T14:49:08.733Z,42.49
2022-08-14T14:51:56.950Z,41.85
2022-08-14T14:54:43.578Z,41.69
2022-08-14T14:57:35.364Z,42.23
2022-08-14T15:00:22.049Z,41.82
2022-08-14T15:03:07.778Z,41.62
2022-08-14T15:05:54.281Z,41.96
2022-08-14T15:08:56.365Z,41.85
2022-08-14T15:11:47.101Z,42.01
2022-08-14T15:14:54.920Z,41.52
2022-08-14T15:17:42.008Z,40.02
2022-08-14T15:20:30.190Z,38.32
2022-08-14T15:23:17.803Z,36.92
2022-08-14T15:26:08.886Z,36.37
2022-08-14T15:29:03.080Z,36.65
2022-08-14T15:31:51.392Z,37.17
2022-08-14T15:34:51.149Z,37.76
2022-08-14T15:37:42.455Z,38.49
2022-08-14T15:40:29.038Z,38.97
2022-08-14T15:43:16.311Z,39.41
2022-08-14T15:46:03.727Z,39.92
2022-08-14T15:48:50.128Z,40.51
2022-08-14T15:51:42.294Z,40.39
2022-08-14T15:54:31.645Z,40.85
2022-08-14T15:57:18.079Z,41.01
2022-08-14T16:00:40.553Z,41.16
2022-08-14T16:03:35.162Z,41.50
2022-08-14T16:06:29.792Z,41.76
2022-08-14T16:09:15.847Z,42.04
2022-08-14T16:12:05.345Z,42.34
2022-08-14T16:14:51.204Z,42.29
2022-08-14T16:17:44.035Z,42.64
2022-08-14T16:20:41.688Z,42.96
2022-08-14T16:23:36.000Z,43.00
2022-08-14T16:26:30.013Z,43.13
2022-08-14T16:29:21.316Z,43.19
2022-08-14T16:32:32.091Z,43.45
2022-08-14T16:35:16.471Z,43.80
2022-08-14T16:38:19.191Z,43.58
2022-08-14T16:41:26.529Z,43.91
2022-08-14T16:44:21.852Z,43.98
2022-08-14T16:47:22.524Z,44.09
2022-08-14T16:50:11.205Z,44.20
2022-08-14T16:53:00.723Z,44.23
2022-08-14T16:55:53.615Z,44.16
2022-08-14T16:58:42.954Z,44.40
2022-08-14T17:01:29.069Z,44.29
2022-08-14T17:04:24.717Z,44.50
2022-08-14T17:07:13.622Z,44.59
2022-08-14T17:10:09.226Z,44.71
2022-08-14T17:13:27.079Z,45.00
2022-08-14T17:16:37.138Z,44.97
2022-08-14T17:19:24.310Z,45.09
2022-08-14T17:22:14.093Z,45.18
2022-08-14T17:25:03.531Z,45.28
2022-08-14T17:28:52.690Z,45.45
2022-08-14T17:31:19.156Z,45.49
2022-08-14T17:34:05.455Z,45.55
2022-08-14T17:36:56.528Z,45.56
2022-08-14T17:40:15.889Z,45.82
2022-08-14T17:43:02.810Z,45.56
2022-08-14T17:45:49.902Z,45.71
2022-08-14T17:49:10.485Z,45.39
2022-08-14T17:52:07.843Z,46.00
2022-08-14T17:55:09.873Z,45.70
2022-08-14T17:57:59.046Z,45.79
2022-08-14T18:00:45.692Z,45.86
2022-08-14T18:03:51.197Z,45.92
2022-08-14T18:07:09.083Z,46.01
2022-08-14T18:09:56.960Z,46.07
2022-08-14T18:12:45.593Z,46.16
2022-08-14T18:15:37.268Z,46.23
2022-08-14T18:18:23.605Z,46.23
2022-08-14T18:21:42.449Z,46.24
2022-08-14T18:24:19.967Z,46.25
2022-08-14T18:27:23.111Z,46.33
2022-08-14T18:30:33.094Z,46.66
2022-08-14T18:33:22.671Z,46.38
2022-08-14T18:36:48.182Z,46.42
2022-08-14T18:40:01.798Z,46.57
2022-08-14T18:42:47.657Z,46.60
2022-08-14T18:45:42.886Z,46.76
2022-08-14T18:48:50.980Z,46.76
2022-08-14T18:51:46.155Z,46.96
2022-08-14T18:54:36.852Z,46.81
2022-08-14T18:57:23.503Z,47.21
2022-08-14T19:00:32.820Z,47.45
2022-08-14T19:03:22.697Z,47.12
2022-08-14T19:06:11.307Z,47.19
2022-08-14T19:09:05.421Z,47.19
2022-08-14T19:11:51.692Z,47.22
2022-08-14T19:14:47.597Z,47.23
2022-08-14T19:18:14.869Z,47.21
2022-08-14T19:20:54.098Z,47.06
2022-08-14T19:23:44.414Z,47.11
2022-08-14T19:26:52.181Z,47.11
2022-08-14T19:29:40.689Z,47.20
2022-08-14T19:32:36.896Z,47.06
2022-08-14T19:35:48.993Z,47.12
2022-08-14T19:38:44.516Z,47.18
2022-08-14T19:41:35.834Z,47.11
2022-08-14T19:44:31.663Z,47.14
2022-08-14T19:47:18.910Z,47.03
2022-08-14T19:50:38.333Z,47.10
2022-08-14T19:53:17.207Z,47.17
2022-08-14T19:56:04.936Z,47.12
2022-08-14T19:58:54.859Z,47.25
2022-08-14T20:01:51.260Z,47.36
2022-08-14T20:04:47.615Z,47.29
2022-08-14T20:07:56.268Z,47.51
2022-08-14T20:11:07.363Z,47.53
2022-08-14T20:14:29.494Z,47.81
2022-08-14T20:17:18.625Z,47.66
2022-08-14T20:20:15.426Z,47.94
2022-08-14T20:23:12.186Z,47.73
2022-08-14T20:25:59.489Z,48.03
2022-08-14T20:28:51.615Z,47.95
2022-08-14T20:31:39.191Z,48.04
2022-08-14T20:34:38.405Z,48.21
2022-08-14T20:37:37.506Z,48.22
2022-08-14T20:40:28.122Z,48.24
2022-08-14T20:43:39.316Z,48.52
2022-08-14T20:46:30.491Z,48.57
2022-08-14T20:49:18.740Z,48.66
2022-08-14T20:52:19.207Z,48.65
2022-08-14T20:55:22.227Z,48.82
2022-08-14T20:58:38.555Z,48.84
2022-08-14T21:01:34.805Z,48.65
2022-08-14T21:04:30.504Z,48.76
2022-08-14T21:07:25.726Z,48.68
2022-08-14T21:10:34.080Z,48.96
2022-08-14T21:14:08.915Z,48.75
2022-08-14T21:16:42.924Z,50.04
2022-08-14T21:19:45.442Z,49.03
2022-08-14T21:22:38.576Z,49.27
2022-08-14T21:25:24.364Z,49.05
2022-08-14T21:28:29.638Z,49.30
2022-08-14T21:31:17.604Z,49.21
2022-08-14T21:34:05.511Z,49.39
2022-08-14T21:37:15.527Z,49.38
2022-08-14T21:40:02.093Z,49.24
2022-08-14T21:43:17.780Z,49.35
2022-08-14T21:46:05.068Z,49.59
2022-08-14T21:48:50.805Z,49.37
2022-08-14T21:51:52.891Z,49.49
2022-08-14T21:54:49.697Z,49.49
2022-08-14T21:58:46.074Z,49.46
2022-08-14T22:00:51.610Z,49.78
2022-08-14T22:03:39.613Z,49.53
2022-08-14T22:06:33.841Z,49.66
2022-08-14T22:09:25.499Z,49.63
2022-08-14T22:12:45.326Z,49.77
2022-08-14T22:15:30.122Z,49.96
2022-08-14T22:18:19.839Z,49.74
2022-08-14T22:21:08.217Z,49.73
2022-08-14T22:24:10.757Z,49.75
2022-08-14T22:26:59.621Z,49.77
2022-08-14T22:29:45.480Z,50.00
2022-08-14T22:32:57.301Z,49.94
2022-08-14T22:35:44.490Z,50.05
2022-08-14T22:38:37.040Z,50.08
2022-08-14T22:41:30.408Z,50.22
2022-08-14T22:44:38.692Z,50.24
2022-08-14T22:47:40.309Z,50.24
2022-08-14T22:50:30.726Z,50.44
2022-08-14T22:53:19.086Z,50.26
2022-08-14T22:56:05.421Z,50.57
2022-08-14T22:59:09.487Z,50.40
2022-08-14T23:01:58.781Z,50.31
2022-08-14T23:04:53.871Z,50.50
2022-08-14T23:08:58.942Z,50.48
2022-08-14T23:10:47.260Z,50.55
2022-08-14T23:13:33.287Z,50.48
2022-08-14T23:16:21.103Z,50.55
2022-08-14T23:19:11.015Z,50.52
2022-08-14T23:21:57.492Z,50.64
2022-08-14T23:24:43.665Z,50.75
2022-08-14T23:28:03.257Z,50.69
2022-08-14T23:30:40.574Z,50.71
2022-08-14T23:33:35.423Z,50.67
2022-08-14T23:36:32.336Z,50.53
2022-08-14T23:39:32.743Z,50.68
2022-08-14T23:42:39.990Z,50.70
2022-08-14T23:45:37.162Z,50.94
2022-08-14T23:48:27.882Z,50.59
2022-08-14T23:51:16.647Z,50.54
2022-08-14T23:54:05.863Z,50.77
2022-08-14T23:57:11.886Z,50.76
2022-08-14T23:59:57.743Z,50.96
